Time,TemperatureF,DewpointF,PressureIn,WindDirection,WindDirectionDegrees,WindSpeedMPH,WindSpeedGustMPH,Humidity,HourlyPrecipIn,Conditions,Clouds,dailyrainin,SoftwareType,DateUTC
2013-08-06 00:01:00,62.0,58.4,30.04,NNW,338,2.3,2.3,88,0.00,CLR,,0.00,WeatherDisplay:10.37,2013-08-06 04:01:00,
2013-08-06 00:02:00,61.9,58.3,30.04,NNW,338,1.1,1.1,88,0.00,CLR,,0.00,WeatherDisplay:10.37,2013-08-06 04:02:00,
2013-08-06 00:05:00,61.8,58.5,30.04,NNW,338,2.3,2.3,89,0.00,CLR,,0.00,WeatherDisplay:10.37,2013-08-06 04:05:00,
2013-08-06 00:11:00,61.6,58.3,30.04,NNW,338,3.5,3.5,89,0.00,CLR,,0.00,WeatherDisplay:10.37,2013-08-06 04:11:00,
2013-08-06 00:16:00,61.2,57.6,30.04,NNW,338,3.5,3.5,88,0.00,CLR,,0.00,WeatherDisplay:10.37,2013-08-06 04:16:00,
2013-08-06 00:21:00,60.8,57.5,30.04,NNW,338,3.5,3.5,89,0.00,CLR,,0.00,WeatherDisplay:10.37,2013-08-06 04:21:00,
2013-08-06 00:26:00,60.8,57.5,30.04,NNW,338,1.0,1.0,89,0.00,CLR,,0.00,WeatherDisplay:10.37,2013-08-06 04:26:00,
2013-08-06 00:31:00,60.6,57.3,30.04,NNW,338,2.3,2.3,89,0.00,CLR,,0.00,WeatherDisplay:10.37,2013-08-06 04:31:00,
2013-08-06 00:37:00,60.5,57.6,30.04,NNW,338,2.3,2.3,90,0.00,CLR,,0.00,WeatherDisplay:10.37,2013-08-06 04:37:00,
2013-08-06 00:42:00,60.6,57.7,30.04,NNW,338,3.5,3.5,90,0.00,CLR,,0.00,WeatherDisplay:10.37,2013-08-06 04:42:00,
2013-08-06 00:47:00,60.4,58.1,30.04,NNW,338,3.5,3.5,92,0.00,CLR,,0.00,WeatherDisplay:10.37,2013-08-06 04:47:00,
2013-08-06 00:52:00,60.4,57.5,30.04,NNW,338,0.0,0.0,90,0.00,CLR,,0.00,WeatherDisplay:10.37,2013-08-06 04:52:00,
2013-08-06 00:58:00,60.4,57.5,30.04,NNW,338,0.0,0.0,90,0.00,CLR,,0.00,WeatherDisplay:10.37,2013-08-06 04:58:00,
2013-08-06 01:03:00,60.5,57.9,30.04,NNW,338,1.1,0.0,91,0.00,CLR,,0.00,WeatherDisplay:10.37,2013-08-06 05:03:00,
2013-08-06 01:08:00,60.6,58.0,30.04,NNW,338,2.3,2.3,91,0.00,CLR,,0.00,WeatherDisplay:10.37,2013-08-06 05:08:00,
2013-08-06 01:13:00,60.7,58.1,30.04,NNW,338,0.0,0.0,91,0.00,CLR,,0.00,WeatherDisplay:10.37,2013-08-06 05:13:00,
2013-08-06 01:18:00,61.0,58.7,30.04,NNW,339,5.0,5.0,92,0.00,CLR,,0.00,WeatherDisplay:10.37,2013-08-06 05:18:00,
2013-08-06 01:24:00,61.0,58.7,30.04,North,360,4.6,4.6,92,0.00,CLR,,0.00,WeatherDisplay:10.37,2013-08-06 05:24:00,
2013-08-06 01:29:00,61.1,59.1,30.03,NNW,343,3.5,3.5,93,0.00,CLR,,0.00,WeatherDisplay:10.37,2013-08-06 05:29:00,
2013-08-06 01:34:00,61.0,58.7,30.03,NNW,343,0.0,0.0,92,0.00,CLR,,0.00,WeatherDisplay:10.37,2013-08-06 05:34:00,
2013-08-06 01:39:00,60.9,58.6,30.04,NNW,343,0.0,0.0,92,0.00,CLR,,0.00,WeatherDisplay:10.37,2013-08-06 05:39:00,
2013-08-06 01:44:00,60.7,58.4,30.04,NNW,343,2.0,2.0,92,0.00,CLR,,0.00,WeatherDisplay:10.37,2013-08-06 05:44:00,
2013-08-06 01:49:00,60.6,58.3,30.04,NNW,343,2.3,2.3,92,0.00,CLR,,0.00,WeatherDisplay:10.37,2013-08-06 05:49:00,
2013-08-06 01:54:00,60.5,58.2,30.04,NNW,343,3.0,3.0,92,0.00,CLR,,0.00,WeatherDisplay:10.37,2013-08-06 05:54:00,
2013-08-06 02:00:00,60.0,57.7,30.04,NNW,343,3.5,3.5,92,0.00,CLR,,0.00,WeatherDisplay:10.37,2013-08-06 06:00:00,
2013-08-06 02:05:00,59.8,57.5,30.04,NNW,343,2.3,2.3,92,0.00,CLR,,0.00,WeatherDisplay:10.37,2013-08-06 06:05:00,
2013-08-06 02:10:00,59.7,57.4,30.04,NNW,343,3.0,3.0,92,0.00,CLR,,0.00,WeatherDisplay:10.37,2013-08-06 06:10:00,
2013-08-06 02:15:00,59.3,57.0,30.04,NNW,343,3.5,3.5,92,0.00,CLR,,0.00,WeatherDisplay:10.37,2013-08-06 06:15:00,
2013-08-06 02:20:00,59.2,56.9,30.04,NNW,343,3.5,3.5,92,0.00,CLR,,0.00,WeatherDisplay:10.37,2013-08-06 06:20:00,
2013-08-06 02:25:00,59.3,57.0,30.04,NNW,343,2.3,2.3,92,0.00,CLR,,0.00,WeatherDisplay:10.37,2013-08-06 06:25:00,
2013-08-06 02:31:00,59.2,57.2,30.04,NNW,343,3.5,3.5,93,0.00,CLR,,0.00,WeatherDisplay:10.37,2013-08-06 06:31:00,
2013-08-06 02:36:00,59.0,57.0,30.05,NNW,342,3.5,3.5,93,0.00,CLR,,0.00,WeatherDisplay:10.37,2013-08-06 06:36:00,
2013-08-06 02:41:00,58.9,56.9,30.05,NNW,339,3.5,3.5,93,0.00,CLR,,0.00,WeatherDisplay:10.37,2013-08-06 06:41:00,
2013-08-06 02:46:00,58.8,56.8,30.05,NNW,338,4.0,4.0,93,0.00,CLR,,0.00,WeatherDisplay:10.37,2013-08-06 06:46:00,
2013-08-06 02:51:00,58.7,56.7,30.05,NNW,327,3.5,3.5,93,0.00,CLR,,0.00,WeatherDisplay:10.37,2013-08-06 06:51:00,
2013-08-06 02:57:00,58.6,56.6,30.05,NW,326,3.5,3.5,93,0.00,CLR,,0.00,WeatherDisplay:10.37,2013-08-06 06:57:00,
2013-08-06 03:02:00,58.5,56.5,30.05,NW,322,3.5,3.5,93,0.00,CLR,,0.00,WeatherDisplay:10.37,2013-08-06 07:02:00,
2013-08-06 03:07:00,58.4,56.4,30.05,NW,317,4.6,4.6,93,0.00,CLR,,0.00,WeatherDisplay:10.37,2013-08-06 07:07:00,
2013-08-06 03:12:00,58.3,56.3,30.05,NW,317,3.5,3.5,93,0.00,CLR,,0.00,WeatherDisplay:10.37,2013-08-06 07:12:00,
2013-08-06 03:17:00,58.3,56.3,30.05,NW,317,3.5,3.5,93,0.00,CLR,,0.00,WeatherDisplay:10.37,2013-08-06 07:17:00,
2013-08-06 03:23:00,58.3,56.3,30.05,NW,317,3.5,3.5,93,0.00,CLR,,0.00,WeatherDisplay:10.37,2013-08-06 07:23:00,
2013-08-06 03:28:00,58.2,56.2,30.05,NW,317,0.0,0.0,93,0.00,CLR,,0.00,WeatherDisplay:10.37,2013-08-06 07:28:00,
2013-08-06 03:33:00,58.2,56.2,30.05,NW,317,4.0,4.0,93,0.00,CLR,,0.00,WeatherDisplay:10.37,2013-08-06 07:33:00,
2013-08-06 03:38:00,58.5,56.8,30.05,NW,317,3.5,3.5,94,0.00,CLR,,0.00,WeatherDisplay:10.37,2013-08-06 07:38:00,
2013-08-06 03:44:00,58.5,56.5,30.05,NW,317,5.0,5.0,93,0.00,CLR,,0.00,WeatherDisplay:10.37,2013-08-06 07:44:00,
2013-08-06 03:49:00,58.7,57.0,30.06,NW,322,4.0,4.0,94,0.00,CLR,,0.00,WeatherDisplay:10.37,2013-08-06 07:49:00,
2013-08-06 03:54:00,58.9,57.2,30.05,NW,323,4.0,4.0,94,0.00,CLR,,0.00,WeatherDisplay:10.37,2013-08-06 07:54:00,
2013-08-06 03:59:00,59.1,57.4,30.05,NNW,348,4.6,4.6,94,0.00,CLR,,0.00,WeatherDisplay:10.37,2013-08-06 07:59:00,
2013-08-06 04:04:00,59.2,57.5,30.05,NNW,344,6.9,6.9,94,0.00,CLR,,0.00,WeatherDisplay:10.37,2013-08-06 08:04:00,
2013-08-06 04:09:00,59.2,57.5,30.05,NNW,346,5.8,5.8,94,0.00,CLR,,0.00,WeatherDisplay:10.37,2013-08-06 08:09:00,
2013-08-06 04:15:00,59.1,57.4,30.06,North,353,6.0,8.0,94,0.00,CLR,,0.00,WeatherDisplay:10.37,2013-08-06 08:15:00,
2013-08-06 04:20:00,58.5,56.8,30.05,NNW,345,9.2,9.2,94,0.00,CLR,,0.00,WeatherDisplay:10.37,2013-08-06 08:20:00,
2013-08-06 04:25:00,58.3,56.6,30.06,North,355,7.0,7.0,94,0.00,CLR,,0.00,WeatherDisplay:10.37,2013-08-06 08:25:00,
2013-08-06 04:30:00,58.2,56.5,30.06,North,353,6.0,9.0,94,0.00,CLR,,0.00,WeatherDisplay:10.37,2013-08-06 08:30:00,
2013-08-06 04:35:00,58.2,56.5,30.06,North,5,9.0,9.0,94,0.00,CLR,,0.00,WeatherDisplay:10.37,2013-08-06 08:35:00,
2013-08-06 04:40:00,58.1,56.4,30.06,NNW,347,6.9,6.9,94,0.00,CLR,,0.00,WeatherDisplay:10.37,2013-08-06 08:40:00,
2013-08-06 04:46:00,58.2,56.8,30.06,North,360,6.0,6.0,95,0.00,CLR,,0.00,WeatherDisplay:10.37,2013-08-06 08:46:00,
2013-08-06 04:51:00,58.3,56.9,30.06,NNW,340,4.0,4.0,95,0.00,CLR,,0.00,WeatherDisplay:10.37,2013-08-06 08:51:00,
2013-08-06 04:56:00,58.4,57.0,30.06,NNW,340,1.1,1.1,95,0.00,CLR,,0.00,WeatherDisplay:10.37,2013-08-06 08:56:00,
2013-08-06 05:01:00,58.3,56.9,30.07,NNW,340,3.5,3.5,95,0.00,CLR,,0.00,WeatherDisplay:10.37,2013-08-06 09:01:00,
2013-08-06 05:06:00,58.0,56.3,30.07,NNW,340,2.3,2.3,94,0.00,CLR,,0.00,WeatherDisplay:10.37,2013-08-06 09:06:00,
2013-08-06 05:11:00,57.8,56.1,30.07,NNW,340,2.3,2.3,94,0.00,CLR,,0.00,WeatherDisplay:10.37,2013-08-06 09:11:00,
2013-08-06 05:17:00,57.5,55.8,30.07,NNW,340,3.5,3.5,94,0.00,CLR,,0.00,WeatherDisplay:10.37,2013-08-06 09:17:00,
2013-08-06 05:22:00,57.2,55.5,30.07,NNW,340,2.3,2.3,94,0.00,CLR,,0.00,WeatherDisplay:10.37,2013-08-06 09:22:00,
2013-08-06 05:27:00,57.2,55.5,30.07,NNW,340,0.0,0.0,94,0.00,CLR,,0.00,WeatherDisplay:10.37,2013-08-06 09:27:00,
2013-08-06 05:32:00,57.1,55.4,30.07,NNW,340,2.3,2.3,94,0.00,CLR,,0.00,WeatherDisplay:10.37,2013-08-06 09:32:00,
2013-08-06 05:38:00,57.2,55.5,30.07,NNW,340,3.5,3.5,94,0.00,CLR,,0.00,WeatherDisplay:10.37,2013-08-06 09:38:00,
2013-08-06 05:43:00,57.3,55.6,30.07,NNW,340,3.5,3.5,94,0.00,CLR,,0.00,WeatherDisplay:10.37,2013-08-06 09:43:00,
2013-08-06 05:48:00,57.3,55.6,30.07,NNW,340,3.0,3.0,94,0.00,CLR,,0.00,WeatherDisplay:10.37,2013-08-06 09:48:00,
2013-08-06 05:53:00,57.0,55.3,30.07,NNW,340,3.5,3.5,94,0.00,CLR,,0.00,WeatherDisplay:10.37,2013-08-06 09:53:00,
2013-08-06 05:58:00,56.6,54.9,30.08,NNW,340,3.5,3.5,94,0.00,CLR,,0.00,WeatherDisplay:10.37,2013-08-06 09:58:00,
2013-08-06 06:03:00,56.5,54.8,30.08,NNW,340,2.3,2.3,94,0.00,CLR,,0.00,WeatherDisplay:10.37,2013-08-06 10:03:00,
2013-08-06 06:09:00,56.3,54.6,30.08,NNW,339,3.5,3.5,94,0.00,CLR,,0.00,WeatherDisplay:10.37,2013-08-06 10:09:00,
2013-08-06 06:14:00,56.2,54.5,30.08,NNW,339,2.3,2.3,94,0.00,CLR,,0.00,WeatherDisplay:10.37,2013-08-06 10:14:00,
2013-08-06 06:19:00,56.2,54.5,30.08,NNW,339,3.5,3.5,94,0.00,CLR,,0.00,WeatherDisplay:10.37,2013-08-06 10:19:00,
2013-08-06 06:24:00,56.2,54.5,30.08,NNW,339,3.5,3.5,94,0.00,CLR,,0.00,WeatherDisplay:10.37,2013-08-06 10:24:00,
2013-08-06 06:29:00,56.3,54.6,30.08,NNW,339,0.0,0.1,94,0.00,CLR,,0.00,WeatherDisplay:10.37,2013-08-06 10:29:00,
2013-08-06 06:35:00,56.7,55.0,30.08,NNW,339,1.1,0.0,94,0.00,CLR,,0.00,WeatherDisplay:10.37,2013-08-06 10:35:00,
2013-08-06 06:40:00,57.1,55.4,30.09,NNW,339,2.0,2.0,94,0.00,CLR,,0.00,WeatherDisplay:10.37,2013-08-06 10:40:00,
2013-08-06 06:45:00,57.4,55.7,30.09,NNW,339,0.0,0.0,94,0.00,CLR,,0.00,WeatherDisplay:10.37,2013-08-06 10:45:00,
2013-08-06 06:50:00,57.6,55.9,30.09,NNW,339,1.1,1.1,94,0.00,CLR,,0.00,WeatherDisplay:10.37,2013-08-06 10:50:00,
2013-08-06 06:55:00,58.2,56.5,30.09,NNW,339,3.0,3.0,94,0.00,CLR,,0.00,WeatherDisplay:10.37,2013-08-06 10:55:00,
2013-08-06 07:00:00,58.6,56.6,30.09,NNW,339,3.5,3.5,93,0.00,CLR,,0.00,WeatherDisplay:10.37,2013-08-06 11:00:00,
2013-08-06 07:06:00,59.1,57.1,30.09,NNW,339,2.0,2.0,93,0.00,CLR,,0.00,WeatherDisplay:10.37,2013-08-06 11:06:00,
2013-08-06 07:11:00,59.7,57.7,30.09,NNW,339,4.0,4.0,93,0.00,CLR,,0.00,WeatherDisplay:10.37,2013-08-06 11:11:00,
2013-08-06 07:16:00,59.9,57.3,30.10,NNW,339,3.5,3.5,91,0.00,CLR,,0.00,WeatherDisplay:10.37,2013-08-06 11:16:00,
2013-08-06 07:21:00,60.0,57.1,30.10,NNW,339,3.5,3.5,90,0.00,CLR,,0.00,WeatherDisplay:10.37,2013-08-06 11:21:00,
2013-08-06 07:26:00,60.3,57.0,30.09,NNW,339,3.5,3.5,89,0.00,CLR,,0.00,WeatherDisplay:10.37,2013-08-06 11:26:00,
2013-08-06 07:32:00,60.8,57.2,30.10,NNW,339,3.5,3.5,88,0.00,CLR,,0.00,WeatherDisplay:10.37,2013-08-06 11:32:00,
2013-08-06 07:37:00,61.4,57.5,30.09,NNW,339,3.5,3.5,87,0.00,CLR,,0.00,WeatherDisplay:10.37,2013-08-06 11:37:00,
2013-08-06 07:42:00,61.8,57.2,30.10,North,351,3.5,3.5,85,0.00,CLR,,0.00,WeatherDisplay:10.37,2013-08-06 11:42:00,
2013-08-06 07:47:00,62.3,57.4,30.10,North,355,3.5,3.5,84,0.00,CLR,,0.00,WeatherDisplay:10.37,2013-08-06 11:47:00,
2013-08-06 07:52:00,62.4,56.8,30.10,NNW,342,3.5,3.5,82,0.00,CLR,,0.00,WeatherDisplay:10.37,2013-08-06 11:52:00,
2013-08-06 07:58:00,62.7,57.5,30.10,NNW,344,3.5,3.5,83,0.00,CLR,,0.00,WeatherDisplay:10.37,2013-08-06 11:58:00,
2013-08-06 08:03:00,62.9,56.6,30.10,NNW,344,3.5,3.5,80,0.00,CLR,,0.00,WeatherDisplay:10.37,2013-08-06 12:03:00,
2013-08-06 08:08:00,62.9,56.6,30.10,NNW,340,4.6,4.6,80,0.00,CLR,,0.00,WeatherDisplay:10.37,2013-08-06 12:08:00,
2013-08-06 08:13:00,63.0,56.4,30.10,NNW,340,4.6,4.6,79,0.00,CLR,,0.00,WeatherDisplay:10.37,2013-08-06 12:13:00,
2013-08-06 08:18:00,63.3,56.7,30.10,NNW,340,4.6,4.6,79,0.00,CLR,,0.00,WeatherDisplay:10.37,2013-08-06 12:18:00,
2013-08-06 08:23:00,63.5,56.9,30.10,NNW,340,3.5,3.5,79,0.00,CLR,,0.00,WeatherDisplay:10.37,2013-08-06 12:23:00,
2013-08-06 08:28:00,63.8,57.5,30.10,NNW,340,3.5,3.5,80,0.00,CLR,,0.00,WeatherDisplay:10.37,2013-08-06 12:28:00,
2013-08-06 08:34:00,64.4,57.4,30.10,NNW,340,4.0,4.0,78,0.00,CLR,,0.00,WeatherDisplay:10.37,2013-08-06 12:34:00,
2013-08-06 08:39:00,64.7,57.3,30.10,NNW,340,3.5,3.5,77,0.00,CLR,,0.00,WeatherDisplay:10.37,2013-08-06 12:39:00,
2013-08-06 08:44:00,65.2,57.4,30.10,NNW,341,3.5,3.5,76,0.00,CLR,,0.00,WeatherDisplay:10.37,2013-08-06 12:44:00,
2013-08-06 08:49:00,65.9,58.1,30.10,NNW,341,3.5,3.5,76,0.00,CLR,,0.00,WeatherDisplay:10.37,2013-08-06 12:49:00,
2013-08-06 08:54:00,66.7,57.8,30.10,NNW,341,1.1,1.1,73,0.00,CLR,,0.00,WeatherDisplay:10.37,2013-08-06 12:54:00,
2013-08-06 08:59:00,67.3,57.6,30.10,NNW,341,1.1,0.0,71,0.00,CLR,,0.00,WeatherDisplay:10.37,2013-08-06 12:59:00,
2013-08-06 09:05:00,68.1,57.9,30.10,NNW,341,2.3,2.3,70,0.00,CLR,,0.00,WeatherDisplay:10.37,2013-08-06 13:05:00,
2013-08-06 09:10:00,68.7,57.7,30.10,NNW,341,1.1,1.1,68,0.00,CLR,,0.00,WeatherDisplay:10.37,2013-08-06 13:10:00,
2013-08-06 09:15:00,69.0,57.6,30.10,NNW,341,1.0,1.0,67,0.00,CLR,,0.00,WeatherDisplay:10.37,2013-08-06 13:15:00,
2013-08-06 09:20:00,69.2,56.5,30.10,ESE,111,4.6,4.6,64,0.00,CLR,,0.00,WeatherDisplay:10.37,2013-08-06 13:20:00,
2013-08-06 09:26:00,69.3,55.7,30.10,East,98,8.1,8.1,62,0.00,CLR,,0.00,WeatherDisplay:10.37,2013-08-06 13:26:00,
2013-08-06 09:31:00,69.4,56.3,30.10,East,87,4.6,4.6,63,0.00,CLR,,0.00,WeatherDisplay:10.37,2013-08-06 13:31:00,
2013-08-06 09:36:00,69.4,54.4,30.10,ESE,105,7.0,7.0,59,0.00,CLR,,0.00,WeatherDisplay:10.37,2013-08-06 13:36:00,
2013-08-06 09:41:00,69.4,54.9,30.10,ESE,105,8.1,8.1,60,0.00,CLR,,0.00,WeatherDisplay:10.37,2013-08-06 13:41:00,
2013-08-06 09:46:00,69.5,55.0,30.11,East,94,8.1,8.1,60,0.00,CLR,,0.00,WeatherDisplay:10.37,2013-08-06 13:46:00,
2013-08-06 09:51:00,69.7,55.2,30.10,East,92,6.9,6.9,60,0.00,CLR,,0.00,WeatherDisplay:10.37,2013-08-06 13:51:00,
2013-08-06 09:57:00,69.9,55.8,30.10,ESE,109,8.1,8.1,61,0.00,CLR,,0.00,WeatherDisplay:10.37,2013-08-06 13:57:00,
2013-08-06 10:02:00,70.1,54.6,30.10,ESE,107,11.5,11.5,58,0.00,CLR,,0.00,WeatherDisplay:10.37,2013-08-06 14:02:00,
2013-08-06 10:07:00,70.3,52.9,30.10,ESE,103,11.5,11.5,54,0.00,CLR,,0.00,WeatherDisplay:10.37,2013-08-06 14:07:00,
2013-08-06 10:12:00,70.6,54.1,30.10,ESE,103,11.5,11.5,56,0.00,CLR,,0.00,WeatherDisplay:10.37,2013-08-06 14:12:00,
2013-08-06 10:17:00,70.7,53.2,30.10,East,101,11.5,11.5,54,0.00,CLR,,0.00,WeatherDisplay:10.37,2013-08-06 14:17:00,
2013-08-06 10:22:00,70.9,51.3,30.10,ESE,106,12.7,12.7,50,0.00,CLR,,0.00,WeatherDisplay:10.37,2013-08-06 14:22:00,
2013-08-06 10:27:00,71.0,53.0,30.10,ESE,111,11.5,11.5,53,0.00,CLR,,0.00,WeatherDisplay:10.37,2013-08-06 14:27:00,
2013-08-06 10:33:00,71.2,53.2,30.10,SE,126,13.0,13.0,53,0.00,CLR,,0.00,WeatherDisplay:10.37,2013-08-06 14:33:00,
2013-08-06 10:38:00,71.3,53.3,30.10,ESE,116,12.7,12.7,53,0.00,CLR,,0.00,WeatherDisplay:10.37,2013-08-06 14:38:00,
2013-08-06 10:43:00,71.3,52.2,30.11,ESE,120,11.5,11.5,51,0.00,CLR,,0.00,WeatherDisplay:10.37,2013-08-06 14:43:00,
2013-08-06 10:48:00,71.4,53.4,30.11,ESE,117,11.5,11.5,53,0.00,CLR,,0.00,WeatherDisplay:10.37,2013-08-06 14:48:00,
2013-08-06 10:54:00,71.6,53.0,30.11,ESE,111,8.1,8.1,52,0.00,CLR,,0.00,WeatherDisplay:10.37,2013-08-06 14:54:00,
2013-08-06 10:59:00,71.6,53.0,30.11,ESE,107,9.2,9.2,52,0.00,CLR,,0.00,WeatherDisplay:10.37,2013-08-06 14:59:00,
2013-08-06 11:04:00,71.8,54.3,30.11,ESE,121,11.5,11.5,54,0.00,CLR,,0.00,WeatherDisplay:10.37,2013-08-06 15:04:00,
2013-08-06 11:09:00,71.9,54.9,30.11,ESE,118,9.2,9.2,55,0.00,CLR,,0.00,WeatherDisplay:10.37,2013-08-06 15:09:00,
2013-08-06 11:15:00,71.9,53.8,30.11,East,98,11.5,11.5,53,0.00,CLR,,0.00,WeatherDisplay:10.37,2013-08-06 15:15:00,
2013-08-06 11:20:00,72.0,54.4,30.11,ESE,104,11.5,11.5,54,0.00,CLR,,0.00,WeatherDisplay:10.37,2013-08-06 15:20:00,
2013-08-06 11:25:00,72.0,56.4,30.11,ESE,109,12.7,12.7,58,0.00,CLR,,0.00,WeatherDisplay:10.37,2013-08-06 15:25:00,
2013-08-06 11:30:00,71.9,55.3,30.10,SE,125,9.2,9.2,56,0.00,CLR,,0.00,WeatherDisplay:10.37,2013-08-06 15:30:00,
2013-08-06 11:36:00,72.0,54.9,30.10,ESE,113,13.0,13.0,55,0.00,CLR,,0.00,WeatherDisplay:10.37,2013-08-06 15:36:00,
2013-08-06 11:41:00,71.9,54.3,30.10,ESE,111,9.2,9.2,54,0.00,CLR,,0.00,WeatherDisplay:10.37,2013-08-06 15:41:00,
2013-08-06 11:46:00,72.1,53.5,30.10,SE,127,11.5,11.5,52,0.00,CLR,,0.00,WeatherDisplay:10.37,2013-08-06 15:46:00,
2013-08-06 11:51:00,72.1,55.5,30.10,SE,126,11.5,11.5,56,0.00,CLR,,0.00,WeatherDisplay:10.37,2013-08-06 15:51:00,
2013-08-06 11:57:00,72.1,55.0,30.11,SE,127,11.5,11.5,55,0.00,CLR,,0.00,WeatherDisplay:10.37,2013-08-06 15:57:00,
2013-08-06 12:02:00,72.2,56.1,30.11,ESE,109,11.5,11.5,57,0.00,CLR,,0.00,WeatherDisplay:10.37,2013-08-06 16:02:00,
2013-08-06 12:07:00,72.3,57.2,30.11,SE,145,12.7,12.7,59,0.00,CLR,,0.00,WeatherDisplay:10.37,2013-08-06 16:07:00,
2013-08-06 12:12:00,72.2,55.6,30.11,SE,139,11.5,11.5,56,0.00,CLR,,0.00,WeatherDisplay:10.37,2013-08-06 16:12:00,
2013-08-06 12:17:00,72.2,57.1,30.11,ESE,117,10.4,10.4,59,0.00,CLR,,0.00,WeatherDisplay:10.37,2013-08-06 16:17:00,
2013-08-06 12:22:00,72.1,57.0,30.11,SE,132,13.8,13.8,59,0.00,CLR,,0.00,WeatherDisplay:10.37,2013-08-06 16:22:00,
2013-08-06 12:27:00,72.2,56.6,30.11,SE,128,12.7,12.7,58,0.00,CLR,,0.00,WeatherDisplay:10.37,2013-08-06 16:27:00,
2013-08-06 12:32:00,72.1,57.0,30.12,SE,136,11.5,11.5,59,0.00,CLR,,0.00,WeatherDisplay:10.37,2013-08-06 16:32:00,
2013-08-06 12:38:00,72.1,57.9,30.12,SE,138,12.0,12.0,61,0.00,CLR,,0.00,WeatherDisplay:10.37,2013-08-06 16:38:00,
2013-08-06 12:43:00,71.9,57.3,30.12,SE,142,12.7,12.7,60,0.00,CLR,,0.00,WeatherDisplay:10.37,2013-08-06 16:43:00,
2013-08-06 12:48:00,71.9,57.3,30.12,SE,146,12.7,12.7,60,0.00,CLR,,0.00,WeatherDisplay:10.37,2013-08-06 16:48:00,
2013-08-06 12:53:00,72.0,56.9,30.12,SE,127,9.2,9.2,59,0.00,CLR,,0.00,WeatherDisplay:10.37,2013-08-06 16:53:00,
2013-08-06 12:58:00,72.1,56.5,30.12,SE,134,11.5,11.5,58,0.00,CLR,,0.00,WeatherDisplay:10.37,2013-08-06 16:58:00,
2013-08-06 13:03:00,72.1,58.4,30.12,SE,143,12.7,12.7,62,0.00,SCT,,0.00,WeatherDisplay:10.37,2013-08-06 17:03:00,
2013-08-06 13:08:00,72.2,58.9,30.12,SE,126,9.2,9.2,63,0.00,SCT,,0.00,WeatherDisplay:10.37,2013-08-06 17:08:00,
2013-08-06 13:13:00,72.2,58.5,30.12,ESE,123,12.7,12.7,62,0.00,SCT,,0.00,WeatherDisplay:10.37,2013-08-06 17:13:00,
2013-08-06 13:19:00,72.1,58.4,30.12,SE,136,16.1,16.1,62,0.00,SCT,,0.00,WeatherDisplay:10.37,2013-08-06 17:19:00,
2013-08-06 13:24:00,72.2,58.5,30.12,ESE,112,11.5,11.5,62,0.00,SCT,,0.00,WeatherDisplay:10.37,2013-08-06 17:24:00,
2013-08-06 13:29:00,72.3,59.0,30.12,ESE,107,13.8,13.8,63,0.00,SCT,,0.00,WeatherDisplay:10.37,2013-08-06 17:29:00,
2013-08-06 13:35:00,72.4,59.5,30.12,SSE,151,14.0,14.0,64,0.00,SCT,,0.00,WeatherDisplay:10.37,2013-08-06 17:35:00,
2013-08-06 13:40:00,72.4,59.5,30.12,SE,133,17.3,17.3,64,0.00,SCT,,0.00,WeatherDisplay:10.37,2013-08-06 17:40:00,
2013-08-06 13:45:00,72.4,58.2,30.12,SE,136,12.7,12.7,61,0.00,SCT,,0.00,WeatherDisplay:10.37,2013-08-06 17:45:00,
2013-08-06 13:50:00,72.4,58.6,30.12,SE,146,10.4,10.4,62,0.00,SCT,,0.00,WeatherDisplay:10.37,2013-08-06 17:50:00,
2013-08-06 13:56:00,72.6,59.7,30.12,ESE,121,13.0,13.0,64,0.00,SCT,,0.00,WeatherDisplay:10.37,2013-08-06 17:56:00,
2013-08-06 14:01:00,72.5,59.6,30.12,SE,136,11.5,11.5,64,0.00,SCT,,0.00,WeatherDisplay:10.37,2013-08-06 18:01:00,
2013-08-06 14:06:00,72.4,60.0,30.12,ESE,121,12.7,12.7,65,0.00,SCT,,0.00,WeatherDisplay:10.37,2013-08-06 18:06:00,
2013-08-06 14:11:00,72.5,60.5,30.11,ESE,113,13.8,13.8,66,0.00,SCT,,0.00,WeatherDisplay:10.37,2013-08-06 18:11:00,
2013-08-06 14:16:00,72.4,59.5,30.11,East,97,13.8,13.8,64,0.00,SCT,,0.00,WeatherDisplay:10.37,2013-08-06 18:16:00,
2013-08-06 14:21:00,72.4,60.4,30.11,ESE,114,12.7,12.7,66,0.00,SCT,,0.00,WeatherDisplay:10.37,2013-08-06 18:21:00,
2013-08-06 14:26:00,72.3,59.9,30.11,ESE,120,12.0,12.0,65,0.00,SCT,,0.00,WeatherDisplay:10.37,2013-08-06 18:26:00,
2013-08-06 14:31:00,72.5,60.5,30.11,ESE,111,11.5,11.5,66,0.00,SCT,,0.00,WeatherDisplay:10.37,2013-08-06 18:31:00,
2013-08-06 14:37:00,72.5,60.1,30.11,SE,126,13.8,13.8,65,0.00,SCT,,0.00,WeatherDisplay:10.37,2013-08-06 18:37:00,
2013-08-06 14:42:00,72.6,60.2,30.11,SE,124,13.8,13.8,65,0.00,SCT,,0.00,WeatherDisplay:10.37,2013-08-06 18:42:00,
2013-08-06 14:47:00,72.6,60.6,30.11,East,91,12.7,12.7,66,0.00,SCT,,0.00,WeatherDisplay:10.37,2013-08-06 18:47:00,
2013-08-06 14:53:00,72.5,60.5,30.11,SE,134,15.0,15.0,66,0.00,SCT,,0.00,WeatherDisplay:10.37,2013-08-06 18:53:00,
2013-08-06 14:58:00,72.7,61.1,30.11,East,101,11.5,11.5,67,0.00,SCT,,0.00,WeatherDisplay:10.37,2013-08-06 18:58:00,
2013-08-06 15:03:00,72.7,61.9,30.11,East,101,12.0,12.0,69,0.00,SCT,,0.00,WeatherDisplay:10.37,2013-08-06 19:03:00,
2013-08-06 15:08:00,72.8,62.4,30.11,East,96,11.5,11.5,70,0.00,SCT,,0.00,WeatherDisplay:10.37,2013-08-06 19:08:00,
2013-08-06 15:13:00,73.0,61.8,30.11,ESE,121,12.7,12.7,68,0.00,SCT,,0.00,WeatherDisplay:10.37,2013-08-06 19:13:00,
2013-08-06 15:18:00,72.9,61.3,30.11,East,101,11.5,11.5,67,0.00,SCT,,0.00,WeatherDisplay:10.37,2013-08-06 19:18:00,
2013-08-06 15:23:00,72.9,60.9,30.11,East,100,11.5,11.5,66,0.00,SCT,,0.00,WeatherDisplay:10.37,2013-08-06 19:23:00,
2013-08-06 15:28:00,73.1,61.9,30.10,SE,124,12.7,12.7,68,0.00,SCT,,0.00,WeatherDisplay:10.37,2013-08-06 19:28:00,
2013-08-06 15:34:00,73.1,61.9,30.10,ESE,106,11.5,11.5,68,0.00,SCT,,0.00,WeatherDisplay:10.37,2013-08-06 19:34:00,
2013-08-06 15:39:00,73.2,62.0,30.10,ESE,106,12.7,12.7,68,0.00,SCT,,0.00,WeatherDisplay:10.37,2013-08-06 19:39:00,
2013-08-06 15:44:00,73.2,62.4,30.10,ESE,119,9.2,9.2,69,0.00,SCT,,0.00,WeatherDisplay:10.37,2013-08-06 19:44:00,
2013-08-06 15:49:00,73.4,61.3,30.11,ESE,105,11.5,11.5,66,0.00,SCT,,0.00,WeatherDisplay:10.37,2013-08-06 19:49:00,
2013-08-06 15:54:00,73.4,61.3,30.11,SE,140,8.1,8.1,66,0.00,SCT,,0.00,WeatherDisplay:10.37,2013-08-06 19:54:00,
2013-08-06 16:00:00,73.5,60.1,30.11,SE,134,11.5,11.5,63,0.00,SCT,,0.00,WeatherDisplay:10.37,2013-08-06 20:00:00,
2013-08-06 16:05:00,73.5,61.4,30.11,ESE,115,9.2,9.2,66,0.00,BKN,,0.00,WeatherDisplay:10.37,2013-08-06 20:05:00,
2013-08-06 16:10:00,73.4,60.9,30.11,ESE,109,9.2,9.2,65,0.00,BKN,,0.00,WeatherDisplay:10.37,2013-08-06 20:10:00,
2013-08-06 16:15:00,73.5,61.0,30.11,SSE,166,11.5,11.5,65,0.00,BKN,,0.00,WeatherDisplay:10.37,2013-08-06 20:15:00,
2013-08-06 16:20:00,73.6,61.1,30.11,SE,136,13.8,13.8,65,0.00,BKN,,0.00,WeatherDisplay:10.37,2013-08-06 20:20:00,
2013-08-06 16:25:00,73.4,61.8,30.11,SE,125,11.5,11.5,67,0.00,BKN,,0.00,WeatherDisplay:10.37,2013-08-06 20:25:00,
2013-08-06 16:30:00,73.5,61.4,30.11,SE,128,12.0,12.0,66,0.00,BKN,,0.00,WeatherDisplay:10.37,2013-08-06 20:30:00,
2013-08-06 16:34:00,73.5,61.9,30.11,SE,126,12.0,12.0,67,0.00,BKN,,0.00,WeatherDisplay:10.37,2013-08-06 20:34:00,
2013-08-06 16:39:00,73.5,61.0,30.11,SE,126,11.5,11.5,65,0.00,BKN,,0.00,WeatherDisplay:10.37,2013-08-06 20:39:00,
2013-08-06 16:44:00,73.5,62.7,30.10,SE,132,12.0,12.0,69,0.00,BKN,,0.00,WeatherDisplay:10.37,2013-08-06 20:44:00,
2013-08-06 16:49:00,73.6,62.0,30.10,ESE,122,13.0,13.0,67,0.00,BKN,,0.00,WeatherDisplay:10.37,2013-08-06 20:49:00,
2013-08-06 16:55:00,73.5,62.7,30.10,ESE,105,13.0,13.0,69,0.00,BKN,,0.00,WeatherDisplay:10.37,2013-08-06 20:55:00,
2013-08-06 17:00:00,73.5,61.9,30.11,ESE,117,11.5,11.5,67,0.00,BKN,,0.00,WeatherDisplay:10.37,2013-08-06 21:00:00,
2013-08-06 17:05:00,73.6,62.8,30.11,SE,134,9.2,9.2,69,0.00,BKN,,0.00,WeatherDisplay:10.37,2013-08-06 21:05:00,
2013-08-06 17:10:00,73.6,62.4,30.11,ESE,123,11.5,11.5,68,0.00,BKN,,0.00,WeatherDisplay:10.37,2013-08-06 21:10:00,
2013-08-06 17:15:00,73.6,64.0,30.11,SE,128,10.4,10.4,72,0.00,BKN,,0.00,WeatherDisplay:10.37,2013-08-06 21:15:00,
2013-08-06 17:21:00,73.4,63.0,30.11,SE,130,9.2,9.2,70,0.00,BKN,,0.00,WeatherDisplay:10.37,2013-08-06 21:21:00,
2013-08-06 17:26:00,73.2,62.8,30.11,SE,132,9.2,9.2,70,0.00,BKN,,0.00,WeatherDisplay:10.37,2013-08-06 21:26:00,
2013-08-06 17:31:00,73.2,63.2,30.11,SSE,152,7.0,7.0,71,0.00,BKN,,0.00,WeatherDisplay:10.37,2013-08-06 21:31:00,
2013-08-06 17:36:00,73.2,63.6,30.11,South,181,5.8,5.8,72,0.00,BKN,,0.00,WeatherDisplay:10.37,2013-08-06 21:36:00,
2013-08-06 17:41:00,73.1,63.9,30.11,South,171,5.8,5.8,73,0.00,BKN,,0.00,WeatherDisplay:10.37,2013-08-06 21:41:00,
2013-08-06 17:46:00,73.3,64.1,30.11,SSW,202,8.1,8.1,73,0.00,BKN,,0.00,WeatherDisplay:10.37,2013-08-06 21:46:00,
2013-08-06 17:52:00,73.4,63.8,30.11,South,171,5.8,5.8,72,0.00,BKN,,0.00,WeatherDisplay:10.37,2013-08-06 21:52:00,
2013-08-06 17:57:00,73.3,62.9,30.11,SSW,207,9.2,9.2,70,0.00,BKN,,0.00,WeatherDisplay:10.37,2013-08-06 21:57:00,
2013-08-06 18:02:00,73.3,62.9,30.11,South,189,7.0,7.0,70,0.00,SCT,,0.00,WeatherDisplay:10.37,2013-08-06 22:02:00,
2013-08-06 18:07:00,73.2,62.8,30.11,SSW,196,6.9,6.9,70,0.00,SCT,,0.00,WeatherDisplay:10.37,2013-08-06 22:07:00,
2013-08-06 18:12:00,73.2,63.2,30.11,South,173,3.5,3.5,71,0.00,SCT,,0.00,WeatherDisplay:10.37,2013-08-06 22:12:00,
2013-08-06 18:17:00,73.2,62.8,30.11,South,180,8.1,8.1,70,0.00,SCT,,0.00,WeatherDisplay:10.37,2013-08-06 22:17:00,
2013-08-06 18:23:00,73.1,62.7,30.11,South,188,6.9,6.9,70,0.00,SCT,,0.00,WeatherDisplay:10.37,2013-08-06 22:23:00,
2013-08-06 18:28:00,73.1,62.7,30.11,SSW,207,5.8,5.8,70,0.00,SCT,,0.00,WeatherDisplay:10.37,2013-08-06 22:28:00,
2013-08-06 18:33:00,73.1,63.1,30.11,South,184,4.6,4.6,71,0.00,SCT,,0.00,WeatherDisplay:10.37,2013-08-06 22:33:00,
2013-08-06 18:38:00,73.1,63.1,30.11,South,184,4.6,4.6,71,0.00,SCT,,0.00,WeatherDisplay:10.37,2013-08-06 22:38:00,
2013-08-06 18:44:00,73.0,62.6,30.11,South,173,6.9,6.9,70,0.00,SCT,,0.00,WeatherDisplay:10.37,2013-08-06 22:44:00,
2013-08-06 18:49:00,72.9,62.9,30.11,South,173,4.6,4.6,71,0.00,SCT,,0.00,WeatherDisplay:10.37,2013-08-06 22:49:00,
2013-08-06 18:54:00,73.1,63.9,30.11,South,171,5.8,5.8,73,0.00,SCT,,0.00,WeatherDisplay:10.37,2013-08-06 22:54:00,
2013-08-06 18:59:00,73.1,63.1,30.11,South,177,6.9,6.9,71,0.00,SCT,,0.00,WeatherDisplay:10.37,2013-08-06 22:59:00,
2013-08-06 19:04:00,73.1,63.1,30.11,SSW,194,5.8,5.8,71,0.00,SCT,,0.00,WeatherDisplay:10.37,2013-08-06 23:04:00,
2013-08-06 19:09:00,73.0,62.6,30.11,SSW,198,8.1,8.1,70,0.00,SCT,,0.00,WeatherDisplay:10.37,2013-08-06 23:09:00,
2013-08-06 19:14:00,72.9,62.9,30.11,SSW,200,5.8,5.8,71,0.00,SCT,,0.00,WeatherDisplay:10.37,2013-08-06 23:14:00,
2013-08-06 19:19:00,72.7,63.1,30.11,South,191,6.9,6.9,72,0.00,SCT,,0.00,WeatherDisplay:10.37,2013-08-06 23:19:00,
2013-08-06 19:25:00,72.6,63.1,30.11,South,190,5.8,5.8,72,0.00,SCT,,0.00,WeatherDisplay:10.37,2013-08-06 23:25:00,
2013-08-06 19:30:00,72.5,63.4,30.12,South,191,5.0,7.0,73,0.00,SCT,,0.00,WeatherDisplay:10.37,2013-08-06 23:30:00,
2013-08-06 19:35:00,72.3,63.2,30.12,SSW,196,6.9,6.9,73,0.00,SCT,,0.00,WeatherDisplay:10.37,2013-08-06 23:35:00,
2013-08-06 19:40:00,72.2,63.1,30.12,South,191,6.9,6.9,73,0.00,SCT,,0.00,WeatherDisplay:10.37,2013-08-06 23:40:00,
2013-08-06 19:45:00,72.1,63.0,30.12,South,187,6.9,6.9,73,0.00,SCT,,0.00,WeatherDisplay:10.37,2013-08-06 23:45:00,
2013-08-06 19:50:00,72.0,63.3,30.12,South,181,8.1,8.1,74,0.00,SCT,,0.00,WeatherDisplay:10.37,2013-08-06 23:50:00,
2013-08-06 19:55:00,72.0,63.3,30.12,South,173,6.9,6.9,74,0.00,SCT,,0.00,WeatherDisplay:10.37,2013-08-06 23:55:00,
2013-08-06 20:01:00,71.8,62.7,30.12,South,175,8.1,8.1,73,0.00,FEW,,0.00,WeatherDisplay:10.37,2013-08-07 00:01:00,
2013-08-06 20:06:00,71.7,62.6,30.12,South,185,6.9,6.9,73,0.00,FEW,,0.00,WeatherDisplay:10.37,2013-08-07 00:06:00,
2013-08-06 20:11:00,71.5,62.8,30.12,South,189,5.8,5.8,74,0.00,FEW,,0.00,WeatherDisplay:10.37,2013-08-07 00:11:00,
2013-08-06 20:16:00,71.3,62.2,30.12,SSW,211,5.0,5.0,73,0.00,FEW,,0.00,WeatherDisplay:10.37,2013-08-07 00:16:00,
2013-08-06 20:22:00,71.0,62.3,30.13,SSW,208,4.6,4.6,74,0.00,FEW,,0.00,WeatherDisplay:10.37,2013-08-07 00:22:00,
2013-08-06 20:27:00,70.8,62.1,30.13,SSW,213,3.5,3.5,74,0.00,FEW,,0.00,WeatherDisplay:10.37,2013-08-07 00:27:00,
2013-08-06 20:32:00,70.6,62.3,30.13,SSW,210,3.5,3.5,75,0.00,FEW,,0.00,WeatherDisplay:10.37,2013-08-07 00:32:00,
2013-08-06 20:37:00,70.4,62.1,30.13,SSW,210,4.6,4.6,75,0.00,FEW,,0.00,WeatherDisplay:10.37,2013-08-07 00:37:00,
2013-08-06 20:42:00,70.4,62.5,30.13,SSW,210,3.5,3.5,76,0.00,FEW,,0.00,WeatherDisplay:10.37,2013-08-07 00:42:00,
2013-08-06 20:47:00,70.3,62.7,30.13,SSW,210,2.0,2.0,77,0.00,FEW,,0.00,WeatherDisplay:10.37,2013-08-07 00:47:00,
2013-08-06 20:53:00,70.1,62.6,30.13,SSW,210,2.3,2.3,77,0.00,FEW,,0.00,WeatherDisplay:10.37,2013-08-07 00:53:00,
2013-08-06 20:58:00,69.9,62.4,30.13,SSW,210,4.0,4.0,77,0.00,FEW,,0.00,WeatherDisplay:10.37,2013-08-07 00:58:00,
2013-08-06 21:03:00,69.7,61.8,30.13,SSW,210,4.6,4.6,76,0.00,CLR,,0.00,WeatherDisplay:10.37,2013-08-07 01:03:00,
2013-08-06 21:08:00,69.6,62.1,30.13,SSW,210,3.0,3.0,77,0.00,CLR,,0.00,WeatherDisplay:10.37,2013-08-07 01:08:00,
2013-08-06 21:13:00,69.5,62.0,30.13,SSW,209,4.6,4.6,77,0.00,CLR,,0.00,WeatherDisplay:10.37,2013-08-07 01:13:00,
2013-08-06 21:19:00,69.4,61.9,30.13,SSW,209,3.5,3.5,77,0.00,CLR,,0.00,WeatherDisplay:10.37,2013-08-07 01:19:00,
2013-08-06 21:24:00,69.4,62.2,30.13,SSW,209,3.5,3.5,78,0.00,CLR,,0.00,WeatherDisplay:10.37,2013-08-07 01:24:00,
2013-08-06 21:29:00,69.4,63.3,30.13,SSW,205,3.5,3.5,81,0.00,CLR,,0.00,WeatherDisplay:10.37,2013-08-07 01:29:00,
2013-08-06 21:34:00,69.2,63.1,30.13,South,178,5.8,5.8,81,0.00,CLR,,0.00,WeatherDisplay:10.37,2013-08-07 01:34:00,
2013-08-06 21:40:00,68.9,63.2,30.13,South,175,5.8,5.8,82,0.00,CLR,,0.00,WeatherDisplay:10.37,2013-08-07 01:40:00,
2013-08-06 21:45:00,68.7,62.7,30.13,South,173,3.0,6.0,81,0.00,CLR,,0.00,WeatherDisplay:10.37,2013-08-07 01:45:00,
2013-08-06 21:50:00,68.6,62.5,30.13,South,172,4.6,4.6,81,0.00,CLR,,0.00,WeatherDisplay:10.37,2013-08-07 01:50:00,
2013-08-06 21:55:00,68.7,62.6,30.13,South,172,2.3,2.3,81,0.00,CLR,,0.00,WeatherDisplay:10.37,2013-08-07 01:55:00,
2013-08-06 22:00:00,68.6,62.5,30.13,South,172,0.0,0.0,81,0.00,CLR,,0.00,WeatherDisplay:10.37,2013-08-07 02:00:00,
2013-08-06 22:05:00,68.6,62.2,30.13,South,172,0.0,0.0,80,0.00,CLR,,0.00,WeatherDisplay:10.37,2013-08-07 02:05:00,
2013-08-06 22:10:00,68.5,62.1,30.13,South,172,0.0,0.0,80,0.00,CLR,,0.00,WeatherDisplay:10.37,2013-08-07 02:10:00,
2013-08-06 22:16:00,68.4,62.0,30.13,South,172,0.0,0.0,80,0.00,CLR,,0.00,WeatherDisplay:10.37,2013-08-07 02:16:00,
2013-08-06 22:21:00,68.3,62.2,30.13,South,172,0.0,0.0,81,0.00,CLR,,0.00,WeatherDisplay:10.37,2013-08-07 02:21:00,
2013-08-06 22:26:00,68.1,61.7,30.13,South,172,0.0,0.0,80,0.00,CLR,,0.00,WeatherDisplay:10.37,2013-08-07 02:26:00,
2013-08-06 22:31:00,67.9,61.9,30.13,South,172,0.0,0.0,81,0.00,CLR,,0.00,WeatherDisplay:10.37,2013-08-07 02:31:00,
2013-08-06 22:36:00,67.8,62.1,30.13,South,172,0.0,0.0,82,0.00,CLR,,0.00,WeatherDisplay:10.37,2013-08-07 02:36:00,
2013-08-06 22:41:00,67.7,62.3,30.12,South,172,0.0,0.0,83,0.00,CLR,,0.00,WeatherDisplay:10.37,2013-08-07 02:41:00,
2013-08-06 22:46:00,67.5,62.2,30.13,South,172,0.0,0.0,83,0.00,CLR,,0.00,WeatherDisplay:10.37,2013-08-07 02:46:00,
2013-08-06 22:52:00,67.3,62.0,30.13,South,172,0.0,0.0,83,0.00,CLR,,0.00,WeatherDisplay:10.37,2013-08-07 02:52:00,
2013-08-06 22:57:00,67.0,61.7,30.13,South,172,0.0,0.0,83,0.00,CLR,,0.00,WeatherDisplay:10.37,2013-08-07 02:57:00,
2013-08-06 23:02:00,66.8,61.8,30.13,South,172,0.0,0.0,84,0.00,CLR,,0.00,WeatherDisplay:10.37,2013-08-07 03:02:00,
2013-08-06 23:07:00,66.6,61.9,30.13,South,172,0.0,0.0,85,0.00,CLR,,0.00,WeatherDisplay:10.37,2013-08-07 03:07:00,
2013-08-06 23:12:00,66.3,62.0,30.13,South,172,0.0,0.0,86,0.00,CLR,,0.00,WeatherDisplay:10.37,2013-08-07 03:12:00,
2013-08-06 23:18:00,65.9,61.9,30.13,South,172,0.0,0.0,87,0.00,CLR,,0.00,WeatherDisplay:10.37,2013-08-07 03:18:00,
2013-08-06 23:23:00,65.6,61.9,30.13,South,172,0.0,0.0,88,0.00,CLR,,0.00,WeatherDisplay:10.37,2013-08-07 03:23:00,
2013-08-06 23:28:00,65.4,61.8,30.13,South,172,0.0,0.0,88,0.00,CLR,,0.00,WeatherDisplay:10.37,2013-08-07 03:28:00,
2013-08-06 23:33:00,65.4,62.1,30.13,South,172,0.0,0.0,89,0.00,CLR,,0.00,WeatherDisplay:10.37,2013-08-07 03:33:00,
2013-08-06 23:38:00,65.2,61.9,30.13,South,172,0.0,0.0,89,0.00,CLR,,0.00,WeatherDisplay:10.37,2013-08-07 03:38:00,
2013-08-06 23:44:00,65.0,61.7,30.13,South,172,0.0,0.0,89,0.00,CLR,,0.00,WeatherDisplay:10.37,2013-08-07 03:44:00,
2013-08-06 23:49:00,64.9,61.9,30.13,South,172,0.0,0.0,90,0.00,CLR,,0.00,WeatherDisplay:10.37,2013-08-07 03:49:00,
2013-08-06 23:54:00,64.7,61.7,30.13,South,172,0.0,0.0,90,0.00,CLR,,0.00,WeatherDisplay:10.37,2013-08-07 03:54:00,
2013-08-06 23:59:00,64.7,61.7,30.13,South,172,0.0,0.0,90,0.00,CLR,,0.00,WeatherDisplay:10.37,2013-08-07 03:59:00,